sensor_id;sensor_type;location;lat;lon;timestamp;pressure;altitude;pressure_sealevel;temperature;humidity
45071;BME280;30836;48.906;9.140;2022-08-03T00:00:51;986.58;;;27.85;37.52
45071;BME280;30836;48.906;9.140;2022-08-03T00:01:52;986.58;;;27.80;37.70
45071;BME280;30836;48.906;9.140;2022-08-03T00:02:52;986.56;;;27.76;37.71
45071;BME280;30836;48.906;9.140;2022-08-03T00:03:53;986.54;;;27.72;37.91
45071;BME280;30836;48.906;9.140;2022-08-03T00:04:53;986.52;;;27.69;38.04
45071;BME280;30836;48.906;9.140;2022-08-03T00:05:54;986.54;;;27.67;37.95
45071;BME280;30836;48.906;9.140;2022-08-03T00:06:54;986.54;;;27.65;37.99
45071;BME280;30836;48.906;9.140;2022-08-03T00:07:55;986.54;;;27.64;37.97
45071;BME280;30836;48.906;9.140;2022-08-03T00:08:55;986.52;;;27.62;37.94
45071;BME280;30836;48.906;9.140;2022-08-03T00:09:56;986.56;;;27.61;38.00
45071;BME280;30836;48.906;9.140;2022-08-03T00:10:59;986.58;;;27.58;38.11
45071;BME280;30836;48.906;9.140;2022-08-03T00:12:00;986.58;;;27.54;38.05
45071;BME280;30836;48.906;9.140;2022-08-03T00:13:00;986.58;;;27.50;38.20
45071;BME280;30836;48.906;9.140;2022-08-03T00:14:01;986.54;;;27.47;38.31
45071;BME280;30836;48.906;9.140;2022-08-03T00:15:02;986.58;;;27.44;38.47
45071;BME280;30836;48.906;9.140;2022-08-03T00:16:03;986.58;;;27.40;38.60
45071;BME280;30836;48.906;9.140;2022-08-03T00:17:04;986.60;;;27.36;38.66
45071;BME280;30836;48.906;9.140;2022-08-03T00:18:05;986.58;;;27.35;38.50
45071;BME280;30836;48.906;9.140;2022-08-03T00:19:05;986.54;;;27.34;38.53
45071;BME280;30836;48.906;9.140;2022-08-03T00:20:06;986.56;;;27.32;38.67
45071;BME280;30836;48.906;9.140;2022-08-03T00:21:07;986.58;;;27.29;38.69
45071;BME280;30836;48.906;9.140;2022-08-03T00:22:08;986.56;;;27.26;38.54
45071;BME280;30836;48.906;9.140;2022-08-03T00:23:08;986.54;;;27.24;38.56
45071;BME280;30836;48.906;9.140;2022-08-03T00:24:09;986.52;;;27.22;38.55
45071;BME280;30836;48.906;9.140;2022-08-03T00:25:09;986.50;;;27.20;38.72
45071;BME280;30836;48.906;9.140;2022-08-03T00:26:10;986.50;;;27.18;38.87
45071;BME280;30836;48.906;9.140;2022-08-03T00:27:10;986.52;;;27.14;38.76
45071;BME280;30836;48.906;9.140;2022-08-03T00:28:11;986.52;;;27.12;38.79
45071;BME280;30836;48.906;9.140;2022-08-03T00:29:11;986.52;;;27.09;38.86
45071;BME280;30836;48.906;9.140;2022-08-03T00:30:11;986.50;;;27.05;38.87
45071;BME280;30836;48.906;9.140;2022-08-03T00:31:12;986.48;;;27.03;38.92
45071;BME280;30836;48.906;9.140;2022-08-03T00:32:12;986.48;;;27.00;39.08
45071;BME280;30836;48.906;9.140;2022-08-03T00:33:13;986.50;;;26.98;39.18
45071;BME280;30836;48.906;9.140;2022-08-03T00:34:14;986.46;;;26.96;39.18
45071;BME280;30836;48.906;9.140;2022-08-03T00:35:15;986.44;;;26.94;39.44
45071;BME280;30836;48.906;9.140;2022-08-03T00:36:15;986.44;;;26.92;39.42
45071;BME280;30836;48.906;9.140;2022-08-03T00:37:15;986.42;;;26.90;39.41
45071;BME280;30836;48.906;9.140;2022-08-03T00:38:16;986.44;;;26.89;39.52
45071;BME280;30836;48.906;9.140;2022-08-03T00:39:17;986.46;;;26.89;39.47
45071;BME280;30836;48.906;9.140;2022-08-03T00:40:18;986.44;;;26.95;39.19
45071;BME280;30836;48.906;9.140;2022-08-03T00:41:19;986.42;;;27.07;38.96
45071;BME280;30836;48.906;9.140;2022-08-03T00:42:20;986.42;;;27.20;38.77
45071;BME280;30836;48.906;9.140;2022-08-03T00:43:23;986.44;;;27.30;38.62
45071;BME280;30836;48.906;9.140;2022-08-03T00:44:24;986.40;;;27.41;38.42
45071;BME280;30836;48.906;9.140;2022-08-03T00:45:26;986.40;;;27.51;38.25
45071;BME280;30836;48.906;9.140;2022-08-03T00:46:32;986.44;;;27.55;38.32
45071;BME280;30836;48.906;9.140;2022-08-03T00:47:32;986.42;;;27.51;38.54
45071;BME280;30836;48.906;9.140;2022-08-03T00:48:33;986.44;;;27.43;38.63
45071;BME280;30836;48.906;9.140;2022-08-03T00:49:33;986.42;;;27.35;38.74
45071;BME280;30836;48.906;9.140;2022-08-03T00:50:35;986.46;;;27.27;38.87
45071;BME280;30836;48.906;9.140;2022-08-03T00:51:38;986.46;;;27.20;38.93
45071;BME280;30836;48.906;9.140;2022-08-03T00:52:39;986.46;;;27.13;39.24
45071;BME280;30836;48.906;9.140;2022-08-03T00:53:39;986.46;;;27.05;39.49
45071;BME280;30836;48.906;9.140;2022-08-03T00:54:40;986.46;;;26.98;39.49
45071;BME280;30836;48.906;9.140;2022-08-03T00:55:41;986.44;;;26.93;39.54
45071;BME280;30836;48.906;9.140;2022-08-03T00:56:42;986.44;;;26.88;39.81
45071;BME280;30836;48.906;9.140;2022-08-03T00:56:53;986.44;;;26.78;39.85
45071;BME280;30836;48.906;9.140;2022-08-03T00:57:54;986.42;;;26.79;39.86
45071;BME280;30836;48.906;9.140;2022-08-03T00:58:55;986.42;;;26.80;39.81
45071;BME280;30836;48.906;9.140;2022-08-03T00:59:56;986.42;;;26.83;39.64
45071;BME280;30836;48.906;9.140;2022-08-03T01:00:56;986.42;;;26.85;39.73
45071;BME280;30836;48.906;9.140;2022-08-03T01:01:57;986.42;;;26.83;39.76
45071;BME280;30836;48.906;9.140;2022-08-03T01:02:57;986.44;;;26.81;39.83
45071;BME280;30836;48.906;9.140;2022-08-03T01:03:58;986.42;;;26.80;39.89
45071;BME280;30836;48.906;9.140;2022-08-03T01:04:58;986.40;;;26.78;39.89
45071;BME280;30836;48.906;9.140;2022-08-03T01:11:44;986.42;;;26.69;40.31
45071;BME280;30836;48.906;9.140;2022-08-03T01:15:03;986.44;;;26.71;39.97
45071;BME280;30836;48.906;9.140;2022-08-03T01:17:25;986.40;;;26.75;39.94
45071;BME280;30836;48.906;9.140;2022-08-03T01:18:37;986.42;;;26.79;39.88
45071;BME280;30836;48.906;9.140;2022-08-03T01:19:45;986.44;;;26.90;39.49
45071;BME280;30836;48.906;9.140;2022-08-03T01:20:54;986.40;;;27.04;39.24
45071;BME280;30836;48.906;9.140;2022-08-03T01:21:08;986.40;;;27.23;39.15
45071;BME280;30836;48.906;9.140;2022-08-03T01:30:12;986.40;;;26.98;40.00
45071;BME280;30836;48.906;9.140;2022-08-03T01:31:14;986.36;;;26.94;40.03
45071;BME280;30836;48.906;9.140;2022-08-03T01:32:22;986.38;;;26.90;40.10
45071;BME280;30836;48.906;9.140;2022-08-03T01:33:28;986.36;;;26.89;40.03
45071;BME280;30836;48.906;9.140;2022-08-03T01:34:35;986.36;;;26.92;39.94
45071;BME280;30836;48.906;9.140;2022-08-03T01:36:55;986.34;;;27.08;39.52
45071;BME280;30836;48.906;9.140;2022-08-03T01:38:02;986.33;;;27.17;39.32
45071;BME280;30836;48.906;9.140;2022-08-03T01:39:06;986.31;;;27.23;39.31
45071;BME280;30836;48.906;9.140;2022-08-03T01:40:07;986.29;;;27.24;39.27
45071;BME280;30836;48.906;9.140;2022-08-03T01:41:12;986.29;;;27.22;39.31
45071;BME280;30836;48.906;9.140;2022-08-03T01:42:16;986.25;;;27.20;39.39
45071;BME280;30836;48.906;9.140;2022-08-03T01:43:19;986.23;;;27.16;39.40
45071;BME280;30836;48.906;9.140;2022-08-03T01:44:25;986.25;;;27.12;39.70
45071;BME280;30836;48.906;9.140;2022-08-03T01:45:29;986.21;;;27.07;39.67
45071;BME280;30836;48.906;9.140;2022-08-03T01:46:31;986.17;;;27.04;39.61
45071;BME280;30836;48.906;9.140;2022-08-03T01:47:33;986.17;;;27.03;39.65
45071;BME280;30836;48.906;9.140;2022-08-03T01:48:36;986.21;;;27.00;39.74
45071;BME280;30836;48.906;9.140;2022-08-03T01:49:39;986.19;;;26.95;39.96
45071;BME280;30836;48.906;9.140;2022-08-03T01:50:44;986.15;;;26.90;40.01
45071;BME280;30836;48.906;9.140;2022-08-03T01:51:46;986.15;;;26.87;40.11
45071;BME280;30836;48.906;9.140;2022-08-03T01:52:48;986.17;;;26.86;40.08
45071;BME280;30836;48.906;9.140;2022-08-03T01:53:49;986.19;;;26.86;39.95
45071;BME280;30836;48.906;9.140;2022-08-03T01:54:51;986.17;;;26.86;40.10
45071;BME280;30836;48.906;9.140;2022-08-03T01:55:53;986.19;;;26.83;40.19
45071;BME280;30836;48.906;9.140;2022-08-03T01:56:55;986.19;;;26.80;40.17
45071;BME280;30836;48.906;9.140;2022-08-03T01:57:08;986.17;;;26.74;40.26
45071;BME280;30836;48.906;9.140;2022-08-03T01:58:09;986.19;;;26.77;40.21
45071;BME280;30836;48.906;9.140;2022-08-03T01:59:16;986.17;;;26.80;40.09
45071;BME280;30836;48.906;9.140;2022-08-03T02:00:19;986.15;;;26.82;40.09
45071;BME280;30836;48.906;9.140;2022-08-03T02:00:29;986.17;;;26.82;40.07
45071;BME280;30836;48.906;9.140;2022-08-03T02:01:31;986.15;;;26.83;40.14
45071;BME280;30836;48.906;9.140;2022-08-03T02:02:34;986.15;;;26.83;40.21
45071;BME280;30836;48.906;9.140;2022-08-03T02:03:37;986.13;;;26.83;40.09
45071;BME280;30836;48.906;9.140;2022-08-03T02:04:41;986.11;;;26.82;40.19
45071;BME280;30836;48.906;9.140;2022-08-03T02:05:43;986.11;;;26.80;40.41
45071;BME280;30836;48.906;9.140;2022-08-03T02:06:46;986.13;;;26.80;40.33
45071;BME280;30836;48.906;9.140;2022-08-03T02:06:57;986.13;;;26.90;40.27
45071;BME280;30836;48.906;9.140;2022-08-03T02:08:00;986.13;;;26.93;39.97
45071;BME280;30836;48.906;9.140;2022-08-03T02:09:04;986.11;;;26.93;40.11
45071;BME280;30836;48.906;9.140;2022-08-03T02:10:06;986.13;;;26.89;40.17
45071;BME280;30836;48.906;9.140;2022-08-03T02:11:08;986.13;;;26.84;40.32
45071;BME280;30836;48.906;9.140;2022-08-03T02:12:10;986.13;;;26.77;40.62
45071;BME280;30836;48.906;9.140;2022-08-03T02:12:21;986.15;;;26.66;40.65
45071;BME280;30836;48.906;9.140;2022-08-03T02:13:23;986.15;;;26.66;40.64
45071;BME280;30836;48.906;9.140;2022-08-03T02:14:26;986.15;;;26.67;40.67
45071;BME280;30836;48.906;9.140;2022-08-03T02:15:27;986.15;;;26.68;40.64
45071;BME280;30836;48.906;9.140;2022-08-03T02:16:31;986.15;;;26.70;40.67
45071;BME280;30836;48.906;9.140;2022-08-03T02:17:33;986.17;;;26.77;40.55
45071;BME280;30836;48.906;9.140;2022-08-03T02:18:35;986.17;;;26.90;40.13
45071;BME280;30836;48.906;9.140;2022-08-03T02:18:47;986.21;;;27.08;40.07
45071;BME280;30836;48.906;9.140;2022-08-03T02:19:48;986.19;;;27.09;39.99
45071;BME280;30836;48.906;9.140;2022-08-03T02:20:50;986.21;;;27.05;40.20
45071;BME280;30836;48.906;9.140;2022-08-03T02:21:51;986.19;;;26.98;40.40
45071;BME280;30836;48.906;9.140;2022-08-03T02:22:52;986.19;;;26.92;40.35
45071;BME280;30836;48.906;9.140;2022-08-03T02:23:53;986.23;;;26.94;40.27
45071;BME280;30836;48.906;9.140;2022-08-03T02:24:54;986.19;;;27.00;39.98
45071;BME280;30836;48.906;9.140;2022-08-03T02:25:58;986.19;;;27.08;39.92
45071;BME280;30836;48.906;9.140;2022-08-03T02:27:01;986.17;;;27.14;39.77
45071;BME280;30836;48.906;9.140;2022-08-03T02:28:09;986.17;;;27.22;39.61
45071;BME280;30836;48.906;9.140;2022-08-03T02:29:15;986.17;;;27.27;39.66
45071;BME280;30836;48.906;9.140;2022-08-03T02:30:20;986.19;;;27.32;39.46
45071;BME280;30836;48.906;9.140;2022-08-03T02:31:27;986.19;;;27.35;39.57
45071;BME280;30836;48.906;9.140;2022-08-03T02:33:37;986.19;;;27.41;39.38
45071;BME280;30836;48.906;9.140;2022-08-03T02:34:42;986.15;;;27.43;39.39
45071;BME280;30836;48.906;9.140;2022-08-03T02:35:47;986.17;;;27.44;39.37
45071;BME280;30836;48.906;9.140;2022-08-03T02:36:50;986.15;;;27.44;39.39
45071;BME280;30836;48.906;9.140;2022-08-03T02:37:54;986.17;;;27.43;39.42
45071;BME280;30836;48.906;9.140;2022-08-03T02:38:59;986.13;;;27.43;39.33
45071;BME280;30836;48.906;9.140;2022-08-03T02:40:02;986.13;;;27.43;39.24
45071;BME280;30836;48.906;9.140;2022-08-03T02:41:06;986.15;;;27.46;39.24
45071;BME280;30836;48.906;9.140;2022-08-03T02:42:13;986.15;;;27.50;39.12
45071;BME280;30836;48.906;9.140;2022-08-03T02:43:16;986.13;;;27.55;39.14
45071;BME280;30836;48.906;9.140;2022-08-03T02:44:21;986.11;;;27.53;39.33
45071;BME280;30836;48.906;9.140;2022-08-03T02:45:25;986.11;;;27.47;39.55
45071;BME280;30836;48.906;9.140;2022-08-03T02:46:29;986.09;;;27.44;39.30
45071;BME280;30836;48.906;9.140;2022-08-03T02:47:34;986.11;;;27.46;39.15
45071;BME280;30836;48.906;9.140;2022-08-03T02:47:46;986.11;;;27.49;39.19
45071;BME280;30836;48.906;9.140;2022-08-03T02:48:48;986.09;;;27.49;39.31
45071;BME280;30836;48.906;9.140;2022-08-03T02:49:51;986.11;;;27.42;39.56
45071;BME280;30836;48.906;9.140;2022-08-03T02:50:56;986.11;;;27.27;40.10
45071;BME280;30836;48.906;9.140;2022-08-03T02:51:57;986.09;;;27.11;40.46
45071;BME280;30836;48.906;9.140;2022-08-03T02:52:58;986.09;;;26.97;40.74
45071;BME280;30836;48.906;9.140;2022-08-03T02:54:01;986.11;;;26.85;40.77
45071;BME280;30836;48.906;9.140;2022-08-03T02:55:03;986.07;;;26.79;40.87
45071;BME280;30836;48.906;9.140;2022-08-03T02:56:06;986.11;;;26.81;40.85
45071;BME280;30836;48.906;9.140;2022-08-03T02:57:08;986.11;;;26.88;40.65
45071;BME280;30836;48.906;9.140;2022-08-03T02:58:11;986.09;;;26.96;40.42
45071;BME280;30836;48.906;9.140;2022-08-03T02:59:13;986.07;;;27.03;40.28
45071;BME280;30836;48.906;9.140;2022-08-03T03:00:17;986.09;;;27.07;40.26
45071;BME280;30836;48.906;9.140;2022-08-03T03:01:19;986.11;;;27.10;40.40
45071;BME280;30836;48.906;9.140;2022-08-03T03:02:21;986.11;;;27.10;40.33
45071;BME280;30836;48.906;9.140;2022-08-03T03:03:23;986.13;;;27.11;40.23
45071;BME280;30836;48.906;9.140;2022-08-03T03:04:26;986.11;;;27.11;40.25
45071;BME280;30836;48.906;9.140;2022-08-03T03:05:27;986.09;;;27.09;40.26
45071;BME280;30836;48.906;9.140;2022-08-03T03:06:29;986.07;;;27.08;40.21
45071;BME280;30836;48.906;9.140;2022-08-03T03:07:30;986.07;;;27.07;40.22
45071;BME280;30836;48.906;9.140;2022-08-03T03:08:31;986.09;;;27.06;40.18
45071;BME280;30836;48.906;9.140;2022-08-03T03:09:32;986.05;;;27.06;40.11
45071;BME280;30836;48.906;9.140;2022-08-03T03:10:33;986.05;;;27.04;40.22
45071;BME280;30836;48.906;9.140;2022-08-03T03:11:37;986.05;;;27.01;40.17
45071;BME280;30836;48.906;9.140;2022-08-03T03:12:39;986.07;;;26.99;40.21
45071;BME280;30836;48.906;9.140;2022-08-03T03:13:42;986.07;;;26.96;40.48
45071;BME280;30836;48.906;9.140;2022-08-03T03:13:55;986.07;;;26.88;40.46
45071;BME280;30836;48.906;9.140;2022-08-03T03:14:57;986.07;;;26.87;40.49
45071;BME280;30836;48.906;9.140;2022-08-03T03:16:01;986.09;;;26.77;40.98
45071;BME280;30836;48.906;9.140;2022-08-03T03:17:07;986.05;;;26.61;41.40
45071;BME280;30836;48.906;9.140;2022-08-03T03:18:09;986.09;;;26.43;41.80
45071;BME280;30836;48.906;9.140;2022-08-03T03:19:10;986.11;;;26.28;42.40
45071;BME280;30836;48.906;9.140;2022-08-03T03:19:21;986.09;;;26.08;42.65
45071;BME280;30836;48.906;9.140;2022-08-03T03:20:24;986.11;;;26.07;43.16
45071;BME280;30836;48.906;9.140;2022-08-03T03:21:25;986.09;;;26.03;42.81
45071;BME280;30836;48.906;9.140;2022-08-03T03:22:27;986.11;;;25.98;43.49
45071;BME280;30836;48.906;9.140;2022-08-03T03:23:30;986.09;;;25.93;43.36
45071;BME280;30836;48.906;9.140;2022-08-03T03:24:34;986.07;;;25.87;43.32
45071;BME280;30836;48.906;9.140;2022-08-03T03:25:36;986.11;;;25.84;43.87
45071;BME280;30836;48.906;9.140;2022-08-03T03:26:37;986.09;;;25.81;44.40
45071;BME280;30836;48.906;9.140;2022-08-03T03:27:38;986.05;;;25.77;44.23
45071;BME280;30836;48.906;9.140;2022-08-03T03:28:39;986.07;;;25.74;44.12
45071;BME280;30836;48.906;9.140;2022-08-03T03:29:40;986.05;;;25.73;44.22
45071;BME280;30836;48.906;9.140;2022-08-03T03:30:41;986.07;;;25.71;44.12
45071;BME280;30836;48.906;9.140;2022-08-03T03:31:42;986.07;;;25.70;44.22
45071;BME280;30836;48.906;9.140;2022-08-03T03:32:42;986.07;;;25.70;44.53
45071;BME280;30836;48.906;9.140;2022-08-03T03:33:43;986.07;;;25.72;44.47
45071;BME280;30836;48.906;9.140;2022-08-03T03:34:44;986.05;;;25.74;44.72
45071;BME280;30836;48.906;9.140;2022-08-03T03:35:45;986.07;;;25.74;45.06
45071;BME280;30836;48.906;9.140;2022-08-03T03:36:46;986.07;;;25.74;45.03
45071;BME280;30836;48.906;9.140;2022-08-03T03:37:46;986.07;;;25.73;44.83
45071;BME280;30836;48.906;9.140;2022-08-03T03:38:47;986.07;;;25.71;44.90
45071;BME280;30836;48.906;9.140;2022-08-03T03:39:48;986.07;;;25.68;44.79
45071;BME280;30836;48.906;9.140;2022-08-03T03:40:48;986.03;;;25.67;45.07
45071;BME280;30836;48.906;9.140;2022-08-03T03:41:49;986.07;;;25.67;44.96
45071;BME280;30836;48.906;9.140;2022-08-03T03:42:50;986.03;;;25.66;45.01
45071;BME280;30836;48.906;9.140;2022-08-03T03:43:50;986.03;;;25.63;44.99
45071;BME280;30836;48.906;9.140;2022-08-03T03:44:51;986.03;;;25.64;45.09
45071;BME280;30836;48.906;9.140;2022-08-03T03:45:51;986.03;;;25.66;45.08
45071;BME280;30836;48.906;9.140;2022-08-03T03:46:54;986.05;;;25.67;45.26
45071;BME280;30836;48.906;9.140;2022-08-03T03:47:58;986.09;;;25.67;45.34
45071;BME280;30836;48.906;9.140;2022-08-03T03:48:59;986.11;;;25.67;45.25
45071;BME280;30836;48.906;9.140;2022-08-03T03:50:00;986.07;;;25.66;45.26
45071;BME280;30836;48.906;9.140;2022-08-03T03:51:02;986.07;;;25.63;45.52
45071;BME280;30836;48.906;9.140;2022-08-03T03:52:02;986.05;;;25.63;45.29
45071;BME280;30836;48.906;9.140;2022-08-03T03:53:03;986.05;;;25.65;45.19
45071;BME280;30836;48.906;9.140;2022-08-03T03:54:04;986.07;;;25.67;45.68
45071;BME280;30836;48.906;9.140;2022-08-03T03:55:04;986.09;;;25.68;46.13
45071;BME280;30836;48.906;9.140;2022-08-03T03:56:05;986.09;;;25.69;46.19
45071;BME280;30836;48.906;9.140;2022-08-03T03:57:06;986.07;;;25.69;46.34
45071;BME280;30836;48.906;9.140;2022-08-03T03:58:06;986.11;;;25.68;46.31
45071;BME280;30836;48.906;9.140;2022-08-03T03:59:07;986.09;;;25.65;46.05
45071;BME280;30836;48.906;9.140;2022-08-03T04:00:08;986.09;;;25.62;46.10
45071;BME280;30836;48.906;9.140;2022-08-03T04:01:09;986.09;;;25.60;45.98
45071;BME280;30836;48.906;9.140;2022-08-03T04:02:10;986.09;;;25.62;45.95
45071;BME280;30836;48.906;9.140;2022-08-03T04:03:11;986.09;;;25.61;45.93
45071;BME280;30836;48.906;9.140;2022-08-03T04:04:11;986.09;;;25.58;45.99
45071;BME280;30836;48.906;9.140;2022-08-03T04:05:12;986.11;;;25.58;45.85
45071;BME280;30836;48.906;9.140;2022-08-03T04:06:13;986.09;;;25.57;46.07
45071;BME280;30836;48.906;9.140;2022-08-03T04:07:14;986.07;;;25.58;45.89
45071;BME280;30836;48.906;9.140;2022-08-03T04:08:15;986.09;;;25.59;45.73
45071;BME280;30836;48.906;9.140;2022-08-03T04:09:17;986.09;;;25.59;46.05
45071;BME280;30836;48.906;9.140;2022-08-03T04:10:19;986.09;;;25.58;45.89
45071;BME280;30836;48.906;9.140;2022-08-03T04:12:29;986.11;;;25.58;45.77
45071;BME280;30836;48.906;9.140;2022-08-03T04:13:32;986.11;;;25.59;45.67
45071;BME280;30836;48.906;9.140;2022-08-03T04:14:35;986.13;;;25.60;45.57
45071;BME280;30836;48.906;9.140;2022-08-03T04:15:38;986.13;;;25.59;45.62
45071;BME280;30836;48.906;9.140;2022-08-03T04:16:40;986.15;;;25.60;45.38
45071;BME280;30836;48.906;9.140;2022-08-03T04:17:44;986.17;;;25.67;45.11
45071;BME280;30836;48.906;9.140;2022-08-03T04:18:46;986.17;;;25.77;44.87
45071;BME280;30836;48.906;9.140;2022-08-03T04:19:52;986.17;;;25.91;44.33
45071;BME280;30836;48.906;9.140;2022-08-03T04:20:55;986.21;;;26.05;44.03
45071;BME280;30836;48.906;9.140;2022-08-03T04:22:01;986.19;;;26.15;44.09
45071;BME280;30836;48.906;9.140;2022-08-03T04:23:05;986.23;;;26.22;43.80
45071;BME280;30836;48.906;9.140;2022-08-03T04:24:07;986.21;;;26.29;43.56
45071;BME280;30836;48.906;9.140;2022-08-03T04:25:10;986.19;;;26.39;43.40
45071;BME280;30836;48.906;9.140;2022-08-03T04:26:16;986.21;;;26.48;43.10
45071;BME280;30836;48.906;9.140;2022-08-03T04:27:20;986.21;;;26.55;43.00
45071;BME280;30836;48.906;9.140;2022-08-03T04:28:25;986.23;;;26.62;42.86
45071;BME280;30836;48.906;9.140;2022-08-03T04:29:28;986.23;;;26.67;42.84
45071;BME280;30836;48.906;9.140;2022-08-03T04:30:32;986.23;;;26.69;42.90
45071;BME280;30836;48.906;9.140;2022-08-03T04:31:37;986.23;;;26.69;42.95
45071;BME280;30836;48.906;9.140;2022-08-03T04:32:39;986.23;;;26.70;42.83
45071;BME280;30836;48.906;9.140;2022-08-03T04:33:40;986.23;;;26.73;42.73
45071;BME280;30836;48.906;9.140;2022-08-03T04:34:43;986.23;;;26.76;42.72
45071;BME280;30836;48.906;9.140;2022-08-03T04:35:44;986.21;;;26.77;42.76
45071;BME280;30836;48.906;9.140;2022-08-03T04:36:49;986.25;;;26.80;42.56
45071;BME280;30836;48.906;9.140;2022-08-03T04:37:58;986.29;;;26.84;42.53
45071;BME280;30836;48.906;9.140;2022-08-03T04:40:14;986.31;;;26.87;42.54
45071;BME280;30836;48.906;9.140;2022-08-03T04:41:21;986.31;;;26.85;42.43
45071;BME280;30836;48.906;9.140;2022-08-03T04:42:24;986.29;;;26.85;42.38
45071;BME280;30836;48.906;9.140;2022-08-03T04:43:25;986.27;;;26.89;42.23
45071;BME280;30836;48.906;9.140;2022-08-03T04:44:27;986.31;;;26.93;42.19
45071;BME280;30836;48.906;9.140;2022-08-03T04:45:29;986.31;;;26.97;42.14
45071;BME280;30836;48.906;9.140;2022-08-03T04:46:33;986.33;;;27.00;42.12
45071;BME280;30836;48.906;9.140;2022-08-03T04:47:37;986.34;;;27.04;41.98
45071;BME280;30836;48.906;9.140;2022-08-03T04:48:38;986.34;;;27.09;42.01
45071;BME280;30836;48.906;9.140;2022-08-03T04:49:39;986.34;;;27.12;41.93
45071;BME280;30836;48.906;9.140;2022-08-03T04:50:40;986.36;;;27.12;41.94
45071;BME280;30836;48.906;9.140;2022-08-03T04:51:41;986.36;;;27.12;41.91
45071;BME280;30836;48.906;9.140;2022-08-03T04:51:51;986.36;;;27.13;41.87
45071;BME280;30836;48.906;9.140;2022-08-03T04:52:02;986.36;;;27.13;41.83
45071;BME280;30836;48.906;9.140;2022-08-03T04:53:04;986.38;;;27.13;41.82
45071;BME280;30836;48.906;9.140;2022-08-03T04:54:05;986.38;;;27.09;41.94
45071;BME280;30836;48.906;9.140;2022-08-03T04:55:06;986.38;;;27.06;42.00
45071;BME280;30836;48.906;9.140;2022-08-03T04:56:06;986.36;;;27.07;42.12
45071;BME280;30836;48.906;9.140;2022-08-03T04:57:07;986.34;;;27.10;42.09
45071;BME280;30836;48.906;9.140;2022-08-03T04:58:09;986.33;;;27.14;41.97
45071;BME280;30836;48.906;9.140;2022-08-03T04:59:10;986.36;;;27.19;41.80
45071;BME280;30836;48.906;9.140;2022-08-03T05:00:11;986.34;;;27.23;41.69
45071;BME280;30836;48.906;9.140;2022-08-03T05:01:12;986.38;;;27.23;41.79
45071;BME280;30836;48.906;9.140;2022-08-03T05:02:13;986.38;;;27.23;41.89
45071;BME280;30836;48.906;9.140;2022-08-03T05:03:13;986.40;;;27.24;41.76
45071;BME280;30836;48.906;9.140;2022-08-03T05:04:13;986.38;;;27.26;41.72
45071;BME280;30836;48.906;9.140;2022-08-03T05:05:14;986.38;;;27.30;41.71
45071;BME280;30836;48.906;9.140;2022-08-03T05:06:16;986.38;;;27.35;41.66
45071;BME280;30836;48.906;9.140;2022-08-03T05:06:26;986.38;;;27.41;41.70
45071;BME280;30836;48.906;9.140;2022-08-03T05:07:26;986.38;;;27.40;41.98
45071;BME280;30836;48.906;9.140;2022-08-03T05:08:27;986.38;;;27.36;42.52
45071;BME280;30836;48.906;9.140;2022-08-03T05:09:28;986.38;;;27.25;42.75
45071;BME280;30836;48.906;9.140;2022-08-03T05:10:28;986.38;;;27.11;43.34
45071;BME280;30836;48.906;9.140;2022-08-03T05:11:29;986.36;;;26.97;43.47
45071;BME280;30836;48.906;9.140;2022-08-03T05:12:29;986.36;;;26.85;43.69
45071;BME280;30836;48.906;9.140;2022-08-03T05:13:29;986.34;;;26.77;44.25
45071;BME280;30836;48.906;9.140;2022-08-03T05:14:31;986.34;;;26.71;44.51
45071;BME280;30836;48.906;9.140;2022-08-03T05:15:32;986.34;;;26.66;44.23
45071;BME280;30836;48.906;9.140;2022-08-03T05:16:32;986.38;;;26.61;44.56
45071;BME280;30836;48.906;9.140;2022-08-03T05:17:33;986.38;;;26.56;44.84
45071;BME280;30836;48.906;9.140;2022-08-03T05:18:33;986.38;;;26.51;45.05
45071;BME280;30836;48.906;9.140;2022-08-03T05:19:34;986.40;;;26.47;45.31
45071;BME280;30836;48.906;9.140;2022-08-03T05:20:35;986.42;;;26.43;45.36
45071;BME280;30836;48.906;9.140;2022-08-03T05:21:35;986.44;;;26.40;45.44
45071;BME280;30836;48.906;9.140;2022-08-03T05:22:35;986.42;;;26.38;45.37
45071;BME280;30836;48.906;9.140;2022-08-03T05:23:36;986.44;;;26.34;45.57
45071;BME280;30836;48.906;9.140;2022-08-03T05:24:36;986.44;;;26.31;45.68
45071;BME280;30836;48.906;9.140;2022-08-03T05:25:37;986.44;;;26.28;45.70
45071;BME280;30836;48.906;9.140;2022-08-03T05:26:37;986.46;;;26.26;45.88
45071;BME280;30836;48.906;9.140;2022-08-03T05:27:38;986.46;;;26.24;45.85
45071;BME280;30836;48.906;9.140;2022-08-03T05:28:38;986.46;;;26.24;45.92
45071;BME280;30836;48.906;9.140;2022-08-03T05:29:39;986.46;;;26.24;45.90
45071;BME280;30836;48.906;9.140;2022-08-03T05:30:39;986.48;;;26.23;45.94
45071;BME280;30836;48.906;9.140;2022-08-03T05:31:40;986.46;;;26.23;45.92
45071;BME280;30836;48.906;9.140;2022-08-03T05:32:40;986.46;;;26.23;45.88
45071;BME280;30836;48.906;9.140;2022-08-03T05:33:41;986.46;;;26.23;46.08
45071;BME280;30836;48.906;9.140;2022-08-03T05:34:41;986.46;;;26.23;46.09
45071;BME280;30836;48.906;9.140;2022-08-03T05:35:42;986.42;;;26.23;46.02
45071;BME280;30836;48.906;9.140;2022-08-03T05:36:42;986.42;;;26.24;46.10
45071;BME280;30836;48.906;9.140;2022-08-03T05:37:43;986.46;;;26.25;46.06
45071;BME280;30836;48.906;9.140;2022-08-03T05:38:43;986.42;;;26.27;46.06
45071;BME280;30836;48.906;9.140;2022-08-03T05:39:44;986.42;;;26.29;46.05
45071;BME280;30836;48.906;9.140;2022-08-03T05:40:44;986.46;;;26.31;46.01
45071;BME280;30836;48.906;9.140;2022-08-03T05:41:45;986.48;;;26.33;46.07
45071;BME280;30836;48.906;9.140;2022-08-03T05:42:45;986.48;;;26.32;46.13
45071;BME280;30836;48.906;9.140;2022-08-03T05:43:46;986.48;;;26.29;46.34
45071;BME280;30836;48.906;9.140;2022-08-03T05:44:46;986.50;;;26.27;46.28
45071;BME280;30836;48.906;9.140;2022-08-03T05:45:46;986.50;;;26.27;46.22
45071;BME280;30836;48.906;9.140;2022-08-03T05:46:47;986.52;;;26.28;46.21
45071;BME280;30836;48.906;9.140;2022-08-03T05:47:47;986.50;;;26.32;46.13
45071;BME280;30836;48.906;9.140;2022-08-03T05:48:48;986.52;;;26.36;46.09